Time;durP1;ratioP1;P1;durP2;ratioP2;P2;SDS_P1;SDS_P2;PMS_P1;PMS_P2;Temp;Humidity;BMP_temperature;BMP_pressure;BME280_temperature;BME280_humidity;BME280_pressure;Samples;Min_cycle;Max_cycle;Signal;HPM_P1;HPM_P2
2021/05/13 00:01:31;;;;;;;25.58;18.35;;;10.50;99.90;;;;;;5091455;28;20082;-58
2021/05/13 00:03:57;;;;;;;26.38;17.98;;;10.50;99.90;;;;;;5091462;28;20028;-55
2021/05/13 00:06:22;;;;;;;22.45;17.17;;;10.50;99.90;;;;;;5089912;28;20027;-56
2021/05/13 00:08:55;;;;;;;21.67;16.98;;;10.50;99.90;;;;;;5087388;28;20028;-53
2021/05/13 00:11:26;;;;;;;24.88;17.20;;;10.50;99.90;;;;;;5085687;28;20028;-54
2021/05/13 00:13:52;;;;;;;27.30;19.75;;;10.30;99.90;;;;;;5091488;28;20032;-55
2021/05/13 00:16:17;;;;;;;28.73;19.92;;;10.30;99.90;;;;;;5090355;28;20046;-56
2021/05/13 00:18:43;;;;;;;26.42;19.20;;;10.20;99.90;;;;;;5091409;28;20040;-52
2021/05/13 00:21:08;;;;;;;33.20;22.92;;;10.10;99.90;;;;;;5090360;28;20036;-55
2021/05/13 00:23:34;;;;;;;34.75;23.25;;;10.00;99.90;;;;;;5089183;28;20040;-55
2021/05/13 00:26:00;;;;;;;29.42;21.13;;;9.90;99.90;;;;;;5094565;28;20027;-55
2021/05/13 00:28:25;;;;;;;30.00;21.23;;;9.90;99.90;;;;;;5079137;28;20035;-54
2021/05/13 00:30:51;;;;;;;30.58;20.98;;;9.80;99.90;;;;;;5089860;28;20024;-55
2021/05/13 00:33:17;;;;;;;31.85;20.42;;;9.80;99.90;;;;;;5097291;28;20027;-56
2021/05/13 00:35:42;;;;;;;30.73;20.58;;;9.80;99.90;;;;;;5094348;28;20035;-55
2021/05/13 00:38:08;;;;;;;32.40;20.90;;;9.80;99.90;;;;;;5093393;28;20055;-53
2021/05/13 00:40:34;;;;;;;31.25;22.23;;;9.70;99.90;;;;;;5092097;28;20513;-53
2021/05/13 00:43:01;;;;;;;35.67;24.35;;;9.70;99.90;;;;;;5089326;28;20079;-54
2021/05/13 00:45:28;;;;;;;26.65;21.20;;;9.60;99.90;;;;;;5094845;28;20031;-52
2021/05/13 00:50:19;;;;;;;34.47;22.55;;;9.50;99.90;;;;;;5090991;28;20024;-53
2021/05/13 00:52:46;;;;;;;32.85;21.50;;;9.50;99.90;;;;;;5088456;28;20032;-52
2021/05/13 00:55:14;;;;;;;32.45;21.08;;;9.40;99.90;;;;;;5091591;28;20036;-54
2021/05/13 00:57:43;;;;;;;35.15;21.58;;;9.50;99.90;;;;;;5088553;28;20058;-55
2021/05/13 01:00:31;;;;;;;32.20;22.30;;;9.40;99.90;;;;;;5088854;28;20147;-55
2021/05/13 01:02:56;;;;;;;30.48;20.17;;;9.40;99.90;;;;;;5100004;28;20133;-56
2021/05/13 01:05:22;;;;;;;29.33;20.25;;;9.50;99.90;;;;;;5096782;28;20019;-53
2021/05/13 01:07:48;;;;;;;28.35;20.02;;;9.50;99.90;;;;;;5090962;28;20028;-54
2021/05/13 01:10:14;;;;;;;32.00;21.60;;;9.50;99.90;;;;;;5097799;28;20401;-54
2021/05/13 01:12:41;;;;;;;31.90;23.13;;;9.40;99.90;;;;;;5087661;28;20094;-51
2021/05/13 01:20:33;;;;;;;31.73;20.35;;;9.20;99.90;;;;;;5093220;28;20093;-55
2021/05/13 01:23:00;;;;;;;28.10;20.85;;;9.10;99.90;;;;;;5092674;28;20055;-54
2021/05/13 01:25:26;;;;;;;28.88;19.95;;;9.10;99.90;;;;;;5089033;28;20024;-54
2021/05/13 01:28:00;;;;;;;30.60;19.50;;;9.10;99.90;;;;;;5088469;28;20617;-54
2021/05/13 01:30:27;;;;;;;30.70;21.05;;;9.00;99.90;;;;;;5096117;28;20020;-51
2021/05/13 01:32:53;;;;;;;30.30;20.27;;;8.90;99.90;;;;;;5090499;28;20038;-52
2021/05/13 01:35:19;;;;;;;32.33;20.52;;;8.90;99.90;;;;;;5089501;28;20436;-54
2021/05/13 01:37:44;;;;;;;29.48;21.25;;;8.80;99.90;;;;;;5094900;28;20466;-53
2021/05/13 01:40:10;;;;;;;30.98;20.77;;;8.80;99.90;;;;;;5088010;28;20106;-51
2021/05/13 01:42:36;;;;;;;33.78;22.50;;;8.80;99.90;;;;;;5090522;28;20040;-53
2021/05/13 01:45:02;;;;;;;36.38;23.83;;;8.70;99.90;;;;;;5072735;28;20028;-52
2021/05/13 01:47:34;;;;;;;29.88;21.40;;;8.80;99.90;;;;;;5088393;28;20073;-53
2021/05/13 01:49:59;;;;;;;32.70;22.08;;;8.80;99.90;;;;;;5090651;28;20034;-55
2021/05/13 01:52:25;;;;;;;29.17;22.40;;;8.80;99.90;;;;;;5089483;28;20020;-56
2021/05/13 01:54:50;;;;;;;27.13;20.70;;;8.70;99.90;;;;;;5094083;28;20048;-55
2021/05/13 01:57:16;;;;;;;34.38;22.20;;;8.60;99.90;;;;;;5093556;28;20024;-55
2021/05/13 01:59:41;;;;;;;32.33;22.90;;;8.50;99.90;;;;;;5087944;28;20028;-58
2021/05/13 02:02:09;;;;;;;32.78;22.23;;;8.50;99.90;;;;;;5089422;28;20031;-54
2021/05/13 02:04:34;;;;;;;32.15;22.58;;;8.60;99.90;;;;;;5090695;28;20070;-56
2021/05/13 02:07:00;;;;;;;33.90;21.90;;;8.60;99.90;;;;;;5091039;28;20098;-52
2021/05/13 02:09:25;;;;;;;32.38;20.48;;;8.70;99.90;;;;;;5094262;28;20153;-54
2021/05/13 02:11:51;;;;;;;34.45;21.15;;;8.60;99.90;;;;;;5089933;28;20084;-54
2021/05/13 02:14:17;;;;;;;30.23;20.95;;;8.60;99.90;;;;;;5092490;28;20500;-52
2021/05/13 02:16:42;;;;;;;30.20;21.35;;;8.50;99.90;;;;;;5104643;28;20034;-53
2021/05/13 02:19:08;;;;;;;32.03;21.15;;;8.50;99.90;;;;;;5097270;28;20036;-52
2021/05/13 02:21:33;;;;;;;27.85;20.75;;;8.60;99.90;;;;;;5091113;28;20039;-52
2021/05/13 02:23:59;;;;;;;30.80;20.10;;;8.60;99.90;;;;;;5098041;28;20063;-52
2021/05/13 02:26:24;;;;;;;28.25;20.38;;;8.60;99.90;;;;;;5089196;28;20028;-52
2021/05/13 02:28:50;;;;;;;34.20;21.48;;;8.60;99.90;;;;;;5089883;28;20051;-52
2021/05/13 02:31:15;;;;;;;31.83;21.77;;;8.60;99.90;;;;;;5088875;28;20393;-52
2021/05/13 02:33:41;;;;;;;33.10;21.95;;;8.50;99.90;;;;;;5104520;28;20038;-53
2021/05/13 02:36:08;;;;;;;29.27;19.90;;;8.50;99.90;;;;;;5099870;28;20371;-52
2021/05/13 02:38:35;;;;;;;32.13;20.65;;;8.40;99.90;;;;;;5092793;28;20028;-52
2021/05/13 02:41:01;;;;;;;31.23;21.02;;;8.40;99.90;;;;;;5097317;28;20032;-55
2021/05/13 02:43:26;;;;;;;29.73;19.83;;;8.30;99.90;;;;;;5093523;28;20081;-56
2021/05/13 02:45:52;;;;;;;28.20;20.38;;;8.30;99.90;;;;;;5096126;28;20025;-55
2021/05/13 02:48:17;;;;;;;29.65;20.58;;;8.30;99.90;;;;;;5092192;28;20405;-52
2021/05/13 02:50:43;;;;;;;30.17;20.83;;;8.20;99.90;;;;;;5095688;28;20032;-53
2021/05/13 02:53:08;;;;;;;33.40;21.42;;;8.20;99.90;;;;;;5096420;28;20048;-52
2021/05/13 02:55:34;;;;;;;31.88;21.20;;;8.10;99.90;;;;;;5089514;28;20043;-53
2021/05/13 02:58:01;;;;;;;31.15;22.20;;;8.10;99.90;;;;;;5093536;28;20024;-53
2021/05/13 03:01:21;;;;;;;35.65;21.98;;;8.00;99.90;;;;;;5094092;28;20067;-53
2021/05/13 03:03:15;;;;;;;33.15;21.10;;;8.00;99.90;;;;;;5090031;28;20504;-53
2021/05/13 03:05:41;;;;;;;28.50;21.00;;;8.00;99.90;;;;;;5095933;28;20024;-57
2021/05/13 03:08:06;;;;;;;28.23;20.45;;;8.00;99.90;;;;;;5094425;28;20024;-52
2021/05/13 03:12:59;;;;;;;24.10;18.30;;;8.20;99.90;;;;;;5091186;28;20085;-53
2021/05/13 03:15:24;;;;;;;27.67;19.70;;;8.20;99.90;;;;;;5101874;28;20408;-53
2021/05/13 03:17:51;;;;;;;27.75;19.20;;;8.20;99.90;;;;;;5093200;28;20036;-53
2021/05/13 03:20:21;;;;;;;27.23;19.88;;;8.20;99.90;;;;;;5102463;28;20028;-56
2021/05/13 03:22:55;;;;;;;32.80;22.33;;;8.30;99.90;;;;;;5097285;28;20035;-54
2021/05/13 03:25:32;;;;;;;31.35;19.60;;;8.20;99.90;;;;;;5093346;28;20095;-56
2021/05/13 03:28:07;;;;;;;24.17;18.08;;;8.20;99.90;;;;;;5092616;28;20043;-55
2021/05/13 03:30:40;;;;;;;31.67;20.35;;;8.10;99.90;;;;;;5091716;28;20024;-52
2021/05/13 03:33:06;;;;;;;28.42;18.90;;;8.00;99.90;;;;;;5090415;28;20055;-55
2021/05/13 03:35:32;;;;;;;26.80;19.40;;;7.90;99.90;;;;;;5099858;28;20071;-55
2021/05/13 03:37:58;;;;;;;31.02;18.20;;;7.90;99.90;;;;;;5091764;28;20032;-53
2021/05/13 03:40:23;;;;;;;28.38;19.45;;;7.90;99.90;;;;;;5090998;28;20442;-52
2021/05/13 03:42:49;;;;;;;29.70;18.60;;;8.00;99.90;;;;;;5093934;28;20039;-55
2021/05/13 03:45:15;;;;;;;29.20;19.45;;;8.00;99.90;;;;;;5095739;28;20138;-55
2021/05/13 03:47:40;;;;;;;30.35;18.15;;;8.00;99.90;;;;;;5090992;28;20020;-55
2021/05/13 03:50:06;;;;;;;32.03;18.50;;;8.00;99.90;;;;;;5090623;28;20047;-53
2021/05/13 03:52:32;;;;;;;30.75;19.23;;;8.00;99.90;;;;;;5093363;28;20073;-52
2021/05/13 03:54:57;;;;;;;30.27;18.80;;;8.10;99.90;;;;;;5093408;28;20019;-55
2021/05/13 03:57:23;;;;;;;28.73;18.83;;;8.10;99.90;;;;;;5093728;28;20054;-53
2021/05/13 03:59:50;;;;;;;35.25;18.75;;;8.10;99.90;;;;;;5092193;28;20023;-56
2021/05/13 04:02:32;;;;;;;29.60;17.90;;;8.10;99.90;;;;;;5094053;28;20694;-53
2021/05/13 04:04:59;;;;;;;24.65;16.38;;;8.20;99.90;;;;;;5092283;28;20032;-55
2021/05/13 04:07:33;;;;;;;24.67;15.95;;;8.20;99.90;;;;;;5093147;28;20035;-56
2021/05/13 04:10:03;;;;;;;23.63;15.75;;;8.20;99.90;;;;;;5094001;28;20026;-53
2021/05/13 04:12:29;;;;;;;26.35;16.25;;;8.30;99.90;;;;;;5095969;28;20386;-53
2021/05/13 04:14:56;;;;;;;29.52;16.40;;;8.40;99.90;;;;;;5089714;28;20084;-55
2021/05/13 04:17:21;;;;;;;27.23;17.20;;;8.40;99.90;;;;;;5094524;28;20393;-56
2021/05/13 04:19:47;;;;;;;29.20;17.25;;;8.50;99.90;;;;;;5100654;28;20107;-55
2021/05/13 04:22:14;;;;;;;26.10;17.63;;;8.50;99.90;;;;;;5092836;28;20055;-55
2021/05/13 04:24:41;;;;;;;27.80;17.30;;;8.50;99.90;;;;;;5090108;28;20431;-57
2021/05/13 04:27:06;;;;;;;23.90;16.77;;;8.50;99.90;;;;;;5089983;28;20074;-56
2021/05/13 04:29:32;;;;;;;30.35;18.15;;;8.40;99.90;;;;;;5090124;28;20019;-53
2021/05/13 04:31:57;;;;;;;26.02;17.30;;;8.40;99.90;;;;;;5092300;28;20028;-57
2021/05/13 04:34:24;;;;;;;27.90;18.23;;;8.40;99.90;;;;;;5101919;28;20035;-53
2021/05/13 04:36:50;;;;;;;24.45;17.95;;;8.40;99.90;;;;;;5086383;28;20020;-53
2021/05/13 04:39:16;;;;;;;29.52;17.40;;;8.40;99.90;;;;;;5083953;28;20027;-56
2021/05/13 04:41:41;;;;;;;24.70;17.05;;;8.50;99.90;;;;;;5082614;28;20036;-52
2021/05/13 04:44:07;;;;;;;29.27;17.38;;;8.50;99.90;;;;;;5087233;28;20076;-53
2021/05/13 04:46:34;;;;;;;28.88;17.70;;;8.50;99.90;;;;;;5093368;28;20060;-56
2021/05/13 04:51:27;;;;;;;26.90;16.85;;;8.60;99.90;;;;;;5086816;28;20035;-57
2021/05/13 04:53:53;;;;;;;25.08;16.20;;;8.60;99.90;;;;;;5083268;28;20027;-55
2021/05/13 04:56:20;;;;;;;25.35;17.02;;;8.70;99.90;;;;;;5081723;28;20024;-56
2021/05/13 04:58:46;;;;;;;27.17;16.27;;;8.80;99.90;;;;;;5085047;28;20063;-56
2021/05/13 05:01:12;;;;;;;25.70;16.38;;;8.90;99.90;;;;;;5089828;28;20028;-54
2021/05/13 05:03:37;;;;;;;29.90;16.77;;;8.90;99.90;;;;;;5091374;28;20531;-54
2021/05/13 05:06:03;;;;;;;26.40;16.65;;;9.00;99.90;;;;;;5090657;28;20063;-55
2021/05/13 05:08:29;;;;;;;23.42;16.60;;;9.10;99.90;;;;;;5081237;28;20878;-53
2021/05/13 05:10:54;;;;;;;27.05;17.67;;;9.10;99.90;;;;;;5082549;28;20091;-56
2021/05/13 05:13:20;;;;;;;27.15;17.05;;;9.10;99.90;;;;;;5084674;28;20077;-53
2021/05/13 05:15:45;;;;;;;24.15;15.45;;;9.20;99.90;;;;;;5090064;28;20405;-55
2021/05/13 05:18:21;;;;;;;27.30;17.08;;;9.20;99.90;;;;;;5089172;28;20032;-56
2021/05/13 05:20:47;;;;;;;29.98;17.55;;;9.20;99.90;;;;;;5091365;28;20474;-54
2021/05/13 05:23:13;;;;;;;26.95;16.20;;;9.20;99.90;;;;;;5082126;28;20059;-55
2021/05/13 05:25:39;;;;;;;25.75;15.02;;;9.20;99.90;;;;;;5085261;28;20104;-55
2021/05/13 05:28:05;;;;;;;27.77;17.35;;;9.20;99.90;;;;;;5081200;28;20093;-53
2021/05/13 05:30:33;;;;;;;27.60;15.85;;;9.30;99.90;;;;;;5091199;28;20024;-52
2021/05/13 05:33:04;;;;;;;22.65;16.30;;;9.30;99.90;;;;;;5098126;28;20034;-54
2021/05/13 05:35:29;;;;;;;24.33;15.68;;;9.30;99.90;;;;;;5089534;28;20082;-54
2021/05/13 05:37:56;;;;;;;25.98;14.80;;;9.30;99.90;;;;;;5081078;28;20032;-54
2021/05/13 05:40:22;;;;;;;25.48;16.58;;;9.40;99.90;;;;;;5082929;28;20385;-56
2021/05/13 05:42:48;;;;;;;19.92;14.45;;;9.40;99.90;;;;;;5084072;28;20032;-52
2021/05/13 05:45:16;;;;;;;22.42;14.57;;;9.50;99.90;;;;;;5092056;28;20401;-52
2021/05/13 05:47:42;;;;;;;19.58;15.00;;;9.60;99.90;;;;;;5094450;28;20115;-55
2021/05/13 05:50:08;;;;;;;24.08;15.70;;;9.70;99.90;;;;;;5097978;28;20032;-53
2021/05/13 05:52:35;;;;;;;28.15;17.02;;;9.70;99.90;;;;;;5082658;28;20121;-59
2021/05/13 05:55:01;;;;;;;23.60;16.65;;;9.70;99.90;;;;;;5083136;28;20024;-52
2021/05/13 05:57:27;;;;;;;26.20;18.08;;;9.80;99.90;;;;;;5084581;28;20016;-51
2021/05/13 05:59:52;;;;;;;23.27;17.30;;;9.80;99.90;;;;;;5090012;28;20034;-51
2021/05/13 06:02:18;;;;;;;30.15;17.40;;;9.90;99.90;;;;;;5091084;28;20021;-53
2021/05/13 06:04:43;;;;;;;24.75;17.27;;;9.90;99.90;;;;;;5089706;28;20028;-55
2021/05/13 06:07:09;;;;;;;23.77;15.73;;;10.00;99.90;;;;;;5083912;28;20037;-55
2021/05/13 06:09:34;;;;;;;24.05;16.20;;;10.00;99.90;;;;;;5080343;28;20036;-62
2021/05/13 06:12:00;;;;;;;23.77;16.95;;;10.10;99.90;;;;;;5086648;28;20473;-58
2021/05/13 06:14:26;;;;;;;27.92;17.23;;;10.20;99.90;;;;;;5091254;28;20485;-54
2021/05/13 06:16:51;;;;;;;26.42;16.13;;;10.30;99.90;;;;;;5094545;28;20599;-55
2021/05/13 06:19:20;;;;;;;30.00;17.38;;;10.30;99.90;;;;;;5091300;28;20394;-56
2021/05/13 06:21:45;;;;;;;34.53;17.90;;;10.40;99.90;;;;;;5086367;28;20035;-59
2021/05/13 06:24:12;;;;;;;24.77;17.45;;;10.40;99.90;;;;;;5090228;28;20020;-55
2021/05/13 06:26:38;;;;;;;27.13;18.23;;;10.40;99.90;;;;;;5092582;28;20146;-56
2021/05/13 06:29:06;;;;;;;28.38;19.15;;;10.50;99.90;;;;;;5090389;28;20024;-58
2021/05/13 06:31:34;;;;;;;31.45;20.45;;;10.60;99.90;;;;;;5093897;28;20020;-52
2021/05/13 06:33:59;;;;;;;31.70;20.38;;;10.70;99.90;;;;;;5092727;28;20047;-55
2021/05/13 06:36:25;;;;;;;26.55;18.40;;;10.70;99.90;;;;;;5093495;28;20480;-54
2021/05/13 06:38:51;;;;;;;31.02;19.27;;;10.80;99.90;;;;;;5089961;28;20120;-52
2021/05/13 06:41:17;;;;;;;25.40;18.73;;;10.80;99.90;;;;;;5083985;28;20051;-58
2021/05/13 06:43:43;;;;;;;24.83;18.48;;;10.90;99.90;;;;;;5090856;28;20128;-56
2021/05/13 06:46:10;;;;;;;29.45;18.27;;;11.00;99.90;;;;;;5094782;28;20031;-55
2021/05/13 06:48:35;;;;;;;31.95;18.58;;;11.10;99.90;;;;;;5092150;28;20105;-57
2021/05/13 06:51:01;;;;;;;28.77;19.33;;;11.20;99.90;;;;;;5094483;28;20062;-54
2021/05/13 06:53:27;;;;;;;25.00;18.40;;;11.20;99.90;;;;;;5092325;28;20402;-55
2021/05/13 06:55:53;;;;;;;28.85;19.40;;;11.40;99.90;;;;;;5090517;28;20043;-52
2021/05/13 06:58:23;;;;;;;28.05;18.92;;;11.40;99.90;;;;;;5089464;28;20054;-55
2021/05/13 07:00:49;;;;;;;28.88;19.08;;;11.50;99.90;;;;;;5092354;28;20047;-55
2021/05/13 07:03:16;;;;;;;25.25;19.05;;;11.60;99.90;;;;;;5087428;28;20119;-55
2021/05/13 07:05:42;;;;;;;32.13;17.45;;;11.70;99.90;;;;;;5092796;28;20024;-55
2021/05/13 07:08:09;;;;;;;28.73;18.25;;;11.80;99.90;;;;;;5091399;28;20055;-58
2021/05/13 07:10:37;;;;;;;30.52;19.05;;;11.90;99.90;;;;;;5092239;28;20039;-54
2021/05/13 07:13:04;;;;;;;31.10;19.05;;;11.90;99.90;;;;;;5101345;28;20026;-54
2021/05/13 07:15:29;;;;;;;29.13;19.10;;;12.00;99.90;;;;;;5092013;28;20039;-52
2021/05/13 07:17:55;;;;;;;26.95;17.88;;;12.00;99.90;;;;;;5093366;28;20039;-55
2021/05/13 07:20:22;;;;;;;27.40;18.50;;;12.10;99.90;;;;;;5098176;28;20101;-57
2021/05/13 07:22:48;;;;;;;29.13;18.40;;;12.20;99.90;;;;;;5091813;28;20036;-56
2021/05/13 07:25:14;;;;;;;32.70;19.77;;;12.30;99.90;;;;;;5089654;28;20478;-55
2021/05/13 07:27:39;;;;;;;30.67;18.90;;;12.40;99.90;;;;;;5091450;28;20470;-54
2021/05/13 07:30:05;;;;;;;26.52;19.00;;;12.40;99.90;;;;;;5092465;28;20102;-52
2021/05/13 07:32:31;;;;;;;29.48;18.95;;;12.50;99.90;;;;;;5091537;28;20036;-52
2021/05/13 07:34:57;;;;;;;27.27;17.55;;;12.50;99.90;;;;;;5100709;28;20460;-56
2021/05/13 07:37:22;;;;;;;26.33;18.17;;;12.60;99.90;;;;;;5091204;28;20051;-54
2021/05/13 07:39:48;;;;;;;22.83;15.73;;;12.70;99.90;;;;;;5092242;28;20039;-53
2021/05/13 07:42:14;;;;;;;23.17;16.05;;;12.80;99.90;;;;;;5086541;28;20461;-55
2021/05/13 07:44:40;;;;;;;24.17;15.82;;;12.90;99.90;;;;;;5094775;28;20178;-56
2021/05/13 07:47:05;;;;;;;21.80;15.52;;;13.00;99.90;;;;;;5091939;28;20035;-56
2021/05/13 07:49:34;;;;;;;25.95;17.17;;;13.10;99.90;;;;;;5089060;28;20462;-56
2021/05/13 07:52:00;;;;;;;27.67;15.48;;;13.30;99.90;;;;;;5096336;28;20016;-56
2021/05/13 07:54:25;;;;;;;21.02;14.25;;;13.30;99.90;;;;;;5085867;28;20473;-58
2021/05/13 07:56:51;;;;;;;17.55;12.75;;;13.40;99.90;;;;;;5079741;28;20028;-57
2021/05/13 07:59:16;;;;;;;18.08;12.02;;;13.50;99.90;;;;;;5088296;28;20489;-58
2021/05/13 08:01:42;;;;;;;18.15;11.48;;;13.70;99.90;;;;;;5085462;28;20474;-54
2021/05/13 08:04:07;;;;;;;15.02;10.20;;;13.70;99.90;;;;;;5091116;28;20031;-59
2021/05/13 08:06:33;;;;;;;14.63;10.50;;;13.90;99.90;;;;;;5085779;28;20032;-57
2021/05/13 08:08:58;;;;;;;15.25;10.40;;;14.00;99.90;;;;;;5083399;28;20075;-59
2021/05/13 08:11:24;;;;;;;15.13;11.02;;;14.10;99.90;;;;;;5083407;28;20119;-60
2021/05/13 08:13:50;;;;;;;13.40;9.23;;;14.10;99.90;;;;;;5084100;28;20042;-59
2021/05/13 08:16:15;;;;;;;11.02;9.10;;;14.30;99.90;;;;;;5069228;28;20081;-60
2021/05/13 08:18:41;;;;;;;12.20;7.75;;;14.40;99.90;;;;;;5085106;28;20032;-55
2021/05/13 08:21:07;;;;;;;10.93;7.90;;;14.50;99.90;;;;;;5086611;28;20379;-57
2021/05/13 08:23:32;;;;;;;14.75;7.07;;;14.60;99.90;;;;;;5067417;28;20110;-57
2021/05/13 08:25:58;;;;;;;8.80;6.75;;;14.60;99.90;;;;;;5082851;28;20024;-60
2021/05/13 08:28:24;;;;;;;9.77;6.80;;;14.70;99.90;;;;;;5083999;28;20035;-56
2021/05/13 08:30:50;;;;;;;10.02;6.68;;;14.80;99.90;;;;;;5085228;28;20055;-54
2021/05/13 08:33:16;;;;;;;10.73;6.35;;;14.80;99.90;;;;;;5086399;28;20378;-54
2021/05/13 08:35:41;;;;;;;13.15;6.55;;;14.80;99.90;;;;;;5083258;28;20032;-58
2021/05/13 08:38:07;;;;;;;10.40;6.07;;;14.90;99.90;;;;;;5085532;28;20104;-56
2021/05/13 08:40:33;;;;;;;10.93;6.22;;;15.00;99.90;;;;;;5087641;28;20028;-54
2021/05/13 08:42:59;;;;;;;9.10;5.20;;;15.20;99.90;;;;;;5087664;28;20294;-55
2021/05/13 08:45:26;;;;;;;6.90;5.05;;;15.30;99.90;;;;;;5088978;28;20032;-56
2021/05/13 08:47:52;;;;;;;5.90;4.72;;;15.40;99.90;;;;;;5087458;28;20032;-54
2021/05/13 08:50:19;;;;;;;5.45;4.30;;;15.50;99.90;;;;;;5091288;28;20032;-58
2021/05/13 08:52:45;;;;;;;9.38;4.55;;;15.60;99.90;;;;;;5088496;28;20024;-57
2021/05/13 08:55:12;;;;;;;7.90;4.65;;;15.70;99.90;;;;;;5087943;28;20051;-56
2021/05/13 08:57:38;;;;;;;6.57;4.18;;;15.80;99.90;;;;;;5086184;28;20024;-59
2021/05/13 09:00:07;;;;;;;8.15;3.72;;;15.90;99.90;;;;;;5086659;28;20082;-57
2021/05/13 09:02:32;;;;;;;6.63;3.80;;;15.90;99.90;;;;;;5086569;28;20094;-57
2021/05/13 09:05:00;;;;;;;7.57;3.53;;;16.10;99.90;;;;;;5086361;28;20860;-56
2021/05/13 09:07:31;;;;;;;7.43;3.55;;;16.20;99.90;;;;;;5084073;28;20030;-56
2021/05/13 09:09:57;;;;;;;5.88;3.33;;;16.20;99.90;;;;;;5083921;28;20535;-58
2021/05/13 09:12:25;;;;;;;8.65;3.90;;;16.30;99.90;;;;;;5085873;28;20069;-57
2021/05/13 09:15:03;;;;;;;8.05;2.92;;;16.40;99.90;;;;;;5084091;28;20397;-60
2021/05/13 09:17:29;;;;;;;4.95;3.35;;;16.50;99.90;;;;;;5084509;28;20016;-60
2021/05/13 09:19:55;;;;;;;11.65;3.63;;;16.70;99.90;;;;;;5085187;28;20047;-56
2021/05/13 09:22:24;;;;;;;5.18;3.03;;;16.90;99.90;;;;;;5082632;28;20035;-55
2021/05/13 09:24:49;;;;;;;3.92;2.97;;;17.10;99.90;;;;;;5085435;28;20043;-56
2021/05/13 09:27:16;;;;;;;7.68;3.47;;;17.20;99.90;;;;;;5081940;28;20024;-59
2021/05/13 09:29:42;;;;;;;6.72;3.53;;;17.30;99.90;;;;;;5083605;28;20093;-57
2021/05/13 09:32:19;;;;;;;4.55;2.40;;;17.30;99.90;;;;;;5085191;28;20482;-55
2021/05/13 09:34:46;;;;;;;9.57;2.60;;;17.50;99.90;;;;;;5080862;28;20112;-59
2021/05/13 09:37:11;;;;;;;8.05;2.60;;;17.80;99.90;;;;;;5080728;28;20063;-58
2021/05/13 09:39:45;;;;;;;7.25;2.33;;;17.90;99.90;;;;;;5080721;28;20036;-59
2021/05/13 09:42:11;;;;;;;5.53;2.03;;;17.90;99.90;;;;;;5088869;28;20463;-56
2021/05/13 09:44:41;;;;;;;6.22;2.20;;;18.00;99.90;;;;;;5084664;28;20039;-58
2021/05/13 09:47:20;;;;;;;6.47;1.92;;;18.00;99.90;;;;;;5082739;28;20470;-57
2021/05/13 09:49:58;;;;;;;8.15;2.33;;;18.10;99.90;;;;;;5091133;28;20092;-58
2021/05/13 09:52:57;;;;;;;5.72;1.75;;;18.30;99.90;;;;;;5089803;28;20685;-56
2021/05/13 09:55:35;;;;;;;5.43;1.85;;;18.70;99.90;;;;;;5090700;28;20032;-57
2021/05/13 09:58:01;;;;;;;5.50;1.70;;;18.60;99.90;;;;;;5091064;28;20020;-58
2021/05/13 10:00:46;;;;;;;7.38;2.00;;;18.90;99.90;;;;;;5092719;28;20143;-56
2021/05/13 10:03:18;;;;;;;6.07;2.20;;;18.90;99.90;;;;;;5092590;28;20031;-56
2021/05/13 10:05:48;;;;;;;4.55;2.00;;;18.90;99.90;;;;;;5094027;28;20028;-56
2021/05/13 10:08:15;;;;;;;8.45;2.50;;;19.00;99.90;;;;;;5093497;28;20031;-55
2021/05/13 10:10:42;;;;;;;7.43;2.20;;;19.10;99.90;;;;;;5092775;28;20057;-57
2021/05/13 10:13:09;;;;;;;7.45;2.50;;;19.30;99.90;;;;;;5100134;28;20524;-55
2021/05/13 10:15:40;;;;;;;6.10;2.28;;;19.30;99.90;;;;;;5089310;28;20040;-57
2021/05/13 10:18:19;;;;;;;4.97;1.70;;;19.40;99.90;;;;;;5090485;28;20039;-55
2021/05/13 10:20:50;;;;;;;3.05;1.65;;;19.80;99.90;;;;;;5074799;28;20039;-54
2021/05/13 10:23:16;;;;;;;5.22;2.00;;;20.10;99.50;;;;;;5093405;28;20032;-57
2021/05/13 10:25:41;;;;;;;3.50;1.40;;;20.50;99.90;;;;;;5090649;28;20039;-57
2021/05/13 10:28:11;;;;;;;5.72;2.13;;;21.00;97.00;;;;;;5088128;28;20453;-57
2021/05/13 10:30:37;;;;;;;4.32;1.48;;;21.20;95.60;;;;;;5094050;28;20016;-58
2021/05/13 10:33:15;;;;;;;5.40;1.27;;;21.20;92.50;;;;;;5091913;28;20474;-56
2021/05/13 10:36:09;;;;;;;5.63;1.67;;;21.00;94.10;;;;;;5096953;28;20030;-58
2021/05/13 10:38:56;;;;;;;7.40;1.60;;;21.10;93.30;;;;;;5086200;28;20456;-58
2021/05/13 10:41:28;;;;;;;5.13;1.67;;;21.10;91.70;;;;;;5091202;28;20039;-58
2021/05/13 10:43:54;;;;;;;4.90;1.30;;;21.40;90.90;;;;;;5091487;28;20019;-57
2021/05/13 10:46:27;;;;;;;3.40;1.25;;;21.90;90.50;;;;;;5092453;28;20020;-53
2021/05/13 10:49:15;;;;;;;5.95;1.60;;;22.00;87.60;;;;;;5092351;28;20098;-55
2021/05/13 10:51:42;;;;;;;10.38;1.73;;;21.70;86.00;;;;;;5072175;28;20024;-60
2021/05/13 10:54:08;;;;;;;5.80;1.50;;;21.70;87.40;;;;;;5095681;28;20402;-55
2021/05/13 10:56:36;;;;;;;4.32;2.17;;;21.50;92.60;;;;;;5091516;28;20044;-56
2021/05/13 10:59:05;;;;;;;6.65;2.00;;;21.40;86.50;;;;;;5090235;28;20031;-52
2021/05/13 11:01:48;;;;;;;5.07;1.13;;;21.00;86.60;;;;;;5090501;28;20489;-55
2021/05/13 11:04:23;;;;;;;4.80;1.67;;;21.30;87.90;;;;;;5088671;28;20051;-59
2021/05/13 11:06:57;;;;;;;4.68;1.55;;;21.10;88.10;;;;;;5086930;28;20100;-56
2021/05/13 11:09:44;;;;;;;3.53;1.48;;;21.10;89.60;;;;;;5073373;28;20486;-57
2021/05/13 11:12:24;;;;;;;6.15;1.92;;;21.00;88.10;;;;;;5090289;28;20032;-53
2021/05/13 11:14:59;;;;;;;6.10;2.08;;;20.60;87.40;;;;;;5091468;28;20030;-54
2021/05/13 11:17:46;;;;;;;;;;;20.40;89.00;;;;;;5084742;28;20506;-56
2021/05/13 11:20:29;;;;;;;6.32;1.65;;;19.80;91.50;;;;;;5092127;28;19908;-53
2021/05/13 11:23:13;;;;;;;5.53;1.95;;;19.70;93.80;;;;;;5092459;28;20024;-56
2021/05/13 11:25:44;;;;;;;9.25;2.33;;;19.40;92.60;;;;;;5091046;28;20028;-60
2021/05/13 11:28:27;;;;;;;5.78;2.05;;;19.30;93.70;;;;;;5087069;28;20032;-55
2021/05/13 11:30:55;;;;;;;4.65;1.38;;;19.30;95.30;;;;;;5092407;28;20529;-53
2021/05/13 11:33:22;;;;;;;4.28;1.48;;;19.40;94.30;;;;;;5090079;28;20027;-55
2021/05/13 11:35:48;;;;;;;7.13;1.60;;;19.70;90.70;;;;;;5095032;28;20051;-57
2021/05/13 11:38:24;;;;;;;3.72;1.85;;;19.70;94.40;;;;;;5092508;28;20379;-59
2021/05/13 11:40:51;;;;;;;8.63;1.92;;;20.00;94.10;;;;;;5090490;28;20028;-60
2021/05/13 11:43:27;;;;;;;5.75;1.50;;;20.70;92.60;;;;;;5084243;22;20410;-56
2021/05/13 11:45:55;;;;;;;2.58;1.80;;;21.00;85.40;;;;;;5049369;28;20028;-57
2021/05/13 11:48:40;;;;;;;3.10;1.65;;;21.00;86.00;;;;;;5051968;28;20516;-55
2021/05/13 11:51:11;;;;;;;4.03;1.90;;;21.40;84.30;;;;;;5051088;28;20078;-54
2021/05/13 11:53:39;;;;;;;3.30;1.70;;;21.20;87.70;;;;;;5050177;28;20036;-55
2021/05/13 11:56:06;;;;;;;7.53;1.60;;;21.60;84.50;;;;;;5054553;28;20541;-55
2021/05/13 11:58:45;;;;;;;6.10;1.60;;;21.70;85.50;;;;;;5052386;28;20028;-56
2021/05/13 12:01:39;;;;;;;6.82;1.55;;;22.50;83.40;;;;;;5050723;28;20734;-56
2021/05/13 12:04:11;;;;;;;5.93;1.60;;;22.80;83.60;;;;;;5051102;28;20056;-55
2021/05/13 12:07:03;;;;;;;3.53;1.65;;;23.00;82.10;;;;;;5049466;28;20028;-54
2021/05/13 12:09:32;;;;;;;3.63;1.40;;;22.90;80.50;;;;;;5044937;28;20446;-55
2021/05/13 12:11:59;;;;;;;4.65;1.27;;;23.00;78.80;;;;;;5049628;28;20032;-56
2021/05/13 12:14:27;;;;;;;3.33;1.45;;;22.90;76.30;;;;;;5051921;28;20021;-56
2021/05/13 12:17:11;;;;;;;3.80;1.40;;;22.60;75.80;;;;;;5054320;28;20035;-55
2021/05/13 12:19:42;;;;;;;1.83;1.02;;;23.00;80.60;;;;;;5055798;28;20037;-56
2021/05/13 12:22:10;;;;;;;2.92;0.93;;;23.60;74.20;;;;;;5049551;28;20394;-55
2021/05/13 12:24:40;;;;;;;2.90;1.00;;;23.30;72.20;;;;;;5052534;28;20040;-52
2021/05/13 12:27:06;;;;;;;5.47;1.17;;;23.20;70.10;;;;;;5050030;28;20017;-56
2021/05/13 12:29:33;;;;;;;4.65;1.33;;;23.50;71.90;;;;;;5048843;28;20380;-55
2021/05/13 12:31:59;;;;;;;5.50;1.52;;;24.00;70.20;;;;;;5050009;28;20446;-55
2021/05/13 12:34:40;;;;;;;3.58;1.13;;;24.20;71.40;;;;;;5051183;28;20164;-54
2021/05/13 12:37:07;;;;;;;2.35;1.17;;;23.40;73.10;;;;;;5052562;28;20039;-57
2021/05/13 12:39:39;;;;;;;6.47;1.65;;;23.20;73.80;;;;;;5046236;28;20513;-57
2021/05/13 12:42:26;;;;;;;5.32;1.38;;;22.70;76.50;;;;;;5046400;28;20056;-56
2021/05/13 12:45:18;;;;;;;2.67;0.98;;;22.40;82.90;;;;;;5040678;28;20037;-56
2021/05/13 12:47:54;;;;;;;3.60;1.20;;;22.50;73.10;;;;;;5046631;28;20506;-55
2021/05/13 12:50:23;;;;;;;3.17;1.40;;;23.20;75.60;;;;;;5037047;28;20075;-56
2021/05/13 12:52:50;;;;;;;3.33;1.55;;;23.50;71.00;;;;;;5047898;28;20415;-54
2021/05/13 12:55:18;;;;;;;7.13;1.45;;;23.40;72.10;;;;;;5050447;28;20033;-57
2021/05/13 12:57:45;;;;;;;6.05;1.38;;;22.80;79.20;;;;;;5048850;28;20099;-56